sensor_id;sensor_type;location;lat;lon;timestamp;pressure;altitude;pressure_sealevel;temperature;humidity
57024;BME280;42916;54.346;18.562;2023-03-20T00:03:47;100273.52;;;8.36;95.52
57024;BME280;42916;54.346;18.562;2023-03-20T00:06:21;100268.39;;;8.37;95.40
57024;BME280;42916;54.346;18.562;2023-03-20T00:08:51;100270.10;;;8.39;94.92
57024;BME280;42916;54.346;18.562;2023-03-20T00:11:24;100264.02;;;8.38;95.22
57024;BME280;42916;54.346;18.562;2023-03-20T00:13:58;100265.13;;;8.34;95.11
57024;BME280;42916;54.346;18.562;2023-03-20T00:16:34;100259.83;;;8.35;95.83
57024;BME280;42916;54.346;18.562;2023-03-20T00:19:02;100255.25;;;8.36;95.91
57024;BME280;42916;54.346;18.562;2023-03-20T00:21:29;100255.77;;;8.38;96.04
57024;BME280;42916;54.346;18.562;2023-03-20T00:23:57;100251.03;;;8.36;96.06
57024;BME280;42916;54.346;18.562;2023-03-20T00:26:27;100249.77;;;8.33;95.91
57024;BME280;42916;54.346;18.562;2023-03-20T00:28:56;100244.19;;;8.27;96.03
57024;BME280;42916;54.346;18.562;2023-03-20T00:33:55;100256.02;;;8.22;96.30
57024;BME280;42916;54.346;18.562;2023-03-20T00:36:23;100255.96;;;8.19;96.17
57024;BME280;42916;54.346;18.562;2023-03-20T00:38:50;100254.83;;;8.21;97.26
57024;BME280;42916;54.346;18.562;2023-03-20T00:41:30;100256.18;;;8.24;97.06
57024;BME280;42916;54.346;18.562;2023-03-20T00:44:02;100246.66;;;8.28;97.48
57024;BME280;42916;54.346;18.562;2023-03-20T00:46:34;100253.58;;;8.30;97.56
57024;BME280;42916;54.346;18.562;2023-03-20T00:49:07;100249.90;;;8.37;97.53
57024;BME280;42916;54.346;18.562;2023-03-20T00:51:35;100247.00;;;8.39;97.76
57024;BME280;42916;54.346;18.562;2023-03-20T00:54:14;100243.00;;;8.39;97.55
57024;BME280;42916;54.346;18.562;2023-03-20T00:56:45;100242.58;;;8.41;97.66
57024;BME280;42916;54.346;18.562;2023-03-20T00:59:16;100245.95;;;8.41;97.22
57024;BME280;42916;54.346;18.562;2023-03-20T01:01:44;100244.52;;;8.43;97.50
57024;BME280;42916;54.346;18.562;2023-03-20T01:04:14;100246.40;;;8.46;97.69
57024;BME280;42916;54.346;18.562;2023-03-20T01:06:42;100240.06;;;8.46;97.58
57024;BME280;42916;54.346;18.562;2023-03-20T01:09:09;100241.86;;;8.42;97.27
57024;BME280;42916;54.346;18.562;2023-03-20T01:11:37;100233.57;;;8.39;97.63
57024;BME280;42916;54.346;18.562;2023-03-20T01:14:11;100239.05;;;8.39;97.79
57024;BME280;42916;54.346;18.562;2023-03-20T01:16:39;100243.90;;;8.38;97.65
57024;BME280;42916;54.346;18.562;2023-03-20T01:19:06;100243.25;;;8.38;97.45
57024;BME280;42916;54.346;18.562;2023-03-20T01:21:33;100240.58;;;8.34;97.68
57024;BME280;42916;54.346;18.562;2023-03-20T01:24:00;100240.88;;;8.29;97.62
57024;BME280;42916;54.346;18.562;2023-03-20T01:26:41;100240.51;;;8.26;97.95
57024;BME280;42916;54.346;18.562;2023-03-20T01:29:27;100237.56;;;8.25;98.45
57024;BME280;42916;54.346;18.562;2023-03-20T01:31:53;100236.42;;;8.22;98.48
57024;BME280;42916;54.346;18.562;2023-03-20T01:34:21;100237.79;;;8.24;98.66
57024;BME280;42916;54.346;18.562;2023-03-20T01:36:53;100236.09;;;8.26;98.82
57024;BME280;42916;54.346;18.562;2023-03-20T01:39:21;100240.95;;;8.27;99.15
57024;BME280;42916;54.346;18.562;2023-03-20T01:41:51;100236.98;;;8.27;99.41
57024;BME280;42916;54.346;18.562;2023-03-20T01:44:36;100236.94;;;8.27;99.88
57024;BME280;42916;54.346;18.562;2023-03-20T01:47:13;100233.96;;;8.31;99.78
57024;BME280;42916;54.346;18.562;2023-03-20T01:52:42;100227.79;;;8.19;99.61
57024;BME280;42916;54.346;18.562;2023-03-20T01:55:09;100227.98;;;8.18;99.57
57024;BME280;42916;54.346;18.562;2023-03-20T01:57:38;100227.55;;;8.15;99.76
57024;BME280;42916;54.346;18.562;2023-03-20T02:00:08;100226.46;;;8.11;99.78
57024;BME280;42916;54.346;18.562;2023-03-20T02:02:46;100222.14;;;8.06;100.00
57024;BME280;42916;54.346;18.562;2023-03-20T02:05:25;100214.59;;;8.05;100.00
57024;BME280;42916;54.346;18.562;2023-03-20T02:10:45;100208.94;;;8.04;100.00
57024;BME280;42916;54.346;18.562;2023-03-20T02:13:26;100206.76;;;8.03;100.00
57024;BME280;42916;54.346;18.562;2023-03-20T02:16:16;100205.09;;;8.04;100.00
57024;BME280;42916;54.346;18.562;2023-03-20T02:18:55;100205.60;;;8.05;100.00
57024;BME280;42916;54.346;18.562;2023-03-20T02:21:37;100205.46;;;8.07;100.00
57024;BME280;42916;54.346;18.562;2023-03-20T02:43:38;100191.86;;;8.12;100.00
57024;BME280;42916;54.346;18.562;2023-03-20T02:46:33;100191.98;;;8.11;100.00
57024;BME280;42916;54.346;18.562;2023-03-20T02:49:28;100196.23;;;8.15;100.00
57024;BME280;42916;54.346;18.562;2023-03-20T02:52:10;100193.30;;;8.18;100.00
57024;BME280;42916;54.346;18.562;2023-03-20T03:03:16;100166.81;;;8.25;100.00
57024;BME280;42916;54.346;18.562;2023-03-20T03:05:50;100161.21;;;8.24;100.00
57024;BME280;42916;54.346;18.562;2023-03-20T03:08:20;100158.38;;;8.23;100.00
57024;BME280;42916;54.346;18.562;2023-03-20T03:10:56;100159.60;;;8.18;100.00
57024;BME280;42916;54.346;18.562;2023-03-20T03:13:28;100152.39;;;8.17;100.00
57024;BME280;42916;54.346;18.562;2023-03-20T03:16:08;100151.33;;;8.16;100.00
57024;BME280;42916;54.346;18.562;2023-03-20T03:18:37;100155.58;;;8.14;100.00
57024;BME280;42916;54.346;18.562;2023-03-20T03:21:08;100158.60;;;8.13;100.00
57024;BME280;42916;54.346;18.562;2023-03-20T03:23:43;100156.86;;;8.14;100.00
57024;BME280;42916;54.346;18.562;2023-03-20T03:26:21;100157.42;;;8.17;100.00
57024;BME280;42916;54.346;18.562;2023-03-20T03:28:57;100159.60;;;8.24;100.00
57024;BME280;42916;54.346;18.562;2023-03-20T03:31:28;100160.58;;;8.31;100.00
57024;BME280;42916;54.346;18.562;2023-03-20T03:33:57;100156.11;;;8.39;100.00
57024;BME280;42916;54.346;18.562;2023-03-20T03:39:19;100154.83;;;8.54;100.00
57024;BME280;42916;54.346;18.562;2023-03-20T03:41:56;100157.17;;;8.60;100.00
57024;BME280;42916;54.346;18.562;2023-03-20T03:44:40;100155.61;;;8.66;100.00
57024;BME280;42916;54.346;18.562;2023-03-20T03:47:18;100152.78;;;8.72;100.00
57024;BME280;42916;54.346;18.562;2023-03-20T03:49:50;100155.37;;;8.75;100.00
57024;BME280;42916;54.346;18.562;2023-03-20T03:52:21;100153.23;;;8.77;100.00
57024;BME280;42916;54.346;18.562;2023-03-20T03:55:06;100148.14;;;8.81;100.00
57024;BME280;42916;54.346;18.562;2023-03-20T03:57:55;100145.59;;;8.85;100.00
57024;BME280;42916;54.346;18.562;2023-03-20T04:00:23;100145.59;;;8.89;100.00
57024;BME280;42916;54.346;18.562;2023-03-20T04:02:56;100143.27;;;8.90;100.00
57024;BME280;42916;54.346;18.562;2023-03-20T04:05:27;100139.86;;;8.92;100.00
57024;BME280;42916;54.346;18.562;2023-03-20T04:07:58;100138.60;;;8.94;100.00
57024;BME280;42916;54.346;18.562;2023-03-20T04:10:25;100133.69;;;8.96;100.00
57024;BME280;42916;54.346;18.562;2023-03-20T04:12:52;100129.83;;;8.99;100.00
57024;BME280;42916;54.346;18.562;2023-03-20T04:15:20;100129.96;;;9.01;100.00
57024;BME280;42916;54.346;18.562;2023-03-20T04:17:47;100132.17;;;9.01;100.00
57024;BME280;42916;54.346;18.562;2023-03-20T04:20:17;100136.48;;;9.02;100.00
57024;BME280;42916;54.346;18.562;2023-03-20T04:22:46;100134.09;;;9.02;100.00
57024;BME280;42916;54.346;18.562;2023-03-20T04:25:20;100131.26;;;9.01;100.00
57024;BME280;42916;54.346;18.562;2023-03-20T04:27:50;100130.89;;;8.98;100.00
57024;BME280;42916;54.346;18.562;2023-03-20T04:30:43;100126.72;;;8.94;100.00
57024;BME280;42916;54.346;18.562;2023-03-20T04:33:13;100128.23;;;8.90;100.00
57024;BME280;42916;54.346;18.562;2023-03-20T04:35:59;100127.91;;;8.85;100.00
57024;BME280;42916;54.346;18.562;2023-03-20T04:38:26;100133.16;;;8.81;100.00
57024;BME280;42916;54.346;18.562;2023-03-20T04:40:54;100136.96;;;8.77;100.00
57024;BME280;42916;54.346;18.562;2023-03-20T04:43:21;100139.44;;;8.72;100.00
57024;BME280;42916;54.346;18.562;2023-03-20T04:45:48;100133.75;;;8.69;100.00
57024;BME280;42916;54.346;18.562;2023-03-20T04:48:15;100133.58;;;8.71;100.00
57024;BME280;42916;54.346;18.562;2023-03-20T04:50:42;100135.15;;;8.75;100.00
57024;BME280;42916;54.346;18.562;2023-03-20T04:53:13;100130.55;;;8.78;100.00
57024;BME280;42916;54.346;18.562;2023-03-20T04:55:43;100128.66;;;8.81;100.00
57024;BME280;42916;54.346;18.562;2023-03-20T04:58:11;100130.80;;;8.86;100.00
57024;BME280;42916;54.346;18.562;2023-03-20T05:00:38;100126.87;;;8.89;100.00
57024;BME280;42916;54.346;18.562;2023-03-20T05:03:05;100117.94;;;8.91;100.00
57024;BME280;42916;54.346;18.562;2023-03-20T05:05:32;100114.77;;;8.93;100.00
57024;BME280;42916;54.346;18.562;2023-03-20T05:08:04;100109.70;;;8.91;100.00
57024;BME280;42916;54.346;18.562;2023-03-20T05:10:34;100113.44;;;8.91;100.00
57024;BME280;42916;54.346;18.562;2023-03-20T05:13:12;100124.29;;;8.92;100.00
57024;BME280;42916;54.346;18.562;2023-03-20T05:15:57;100114.61;;;8.94;100.00
57024;BME280;42916;54.346;18.562;2023-03-20T05:18:44;100116.33;;;8.96;100.00
57024;BME280;42916;54.346;18.562;2023-03-20T05:21:43;100119.52;;;9.00;100.00
57024;BME280;42916;54.346;18.562;2023-03-20T05:24:36;100121.77;;;9.01;100.00
57024;BME280;42916;54.346;18.562;2023-03-20T05:27:28;100121.18;;;9.02;100.00
57024;BME280;42916;54.346;18.562;2023-03-20T05:30:27;100121.39;;;9.06;100.00
57024;BME280;42916;54.346;18.562;2023-03-20T05:32:59;100127.08;;;9.09;100.00
57024;BME280;42916;54.346;18.562;2023-03-20T05:35:26;100127.77;;;9.13;100.00
57024;BME280;42916;54.346;18.562;2023-03-20T05:37:59;100127.80;;;9.15;100.00
57024;BME280;42916;54.346;18.562;2023-03-20T05:40:59;100125.11;;;9.18;100.00
57024;BME280;42916;54.346;18.562;2023-03-20T05:44:01;100124.59;;;9.23;100.00
57024;BME280;42916;54.346;18.562;2023-03-20T05:46:57;100119.20;;;9.31;100.00
57024;BME280;42916;54.346;18.562;2023-03-20T05:49:42;100118.65;;;9.35;100.00
57024;BME280;42916;54.346;18.562;2023-03-20T05:52:32;100118.61;;;9.36;100.00
57024;BME280;42916;54.346;18.562;2023-03-20T05:55:16;100122.88;;;9.39;100.00
57024;BME280;42916;54.346;18.562;2023-03-20T05:57:56;100120.11;;;9.40;100.00
57024;BME280;42916;54.346;18.562;2023-03-20T06:00:37;100122.90;;;9.42;100.00
57024;BME280;42916;54.346;18.562;2023-03-20T06:03:27;100125.17;;;9.45;100.00
57024;BME280;42916;54.346;18.562;2023-03-20T06:05:57;100125.15;;;9.49;100.00
57024;BME280;42916;54.346;18.562;2023-03-20T06:08:24;100118.60;;;9.56;100.00
57024;BME280;42916;54.346;18.562;2023-03-20T06:10:52;100121.98;;;9.61;100.00
57024;BME280;42916;54.346;18.562;2023-03-20T06:13:18;100119.45;;;9.65;100.00
57024;BME280;42916;54.346;18.562;2023-03-20T06:15:46;100120.50;;;9.71;100.00
57024;BME280;42916;54.346;18.562;2023-03-20T06:18:16;100117.30;;;9.77;100.00
57024;BME280;42916;54.346;18.562;2023-03-20T06:20:42;100118.00;;;9.83;100.00
57024;BME280;42916;54.346;18.562;2023-03-20T06:23:09;100120.45;;;9.90;100.00
57024;BME280;42916;54.346;18.562;2023-03-20T06:25:36;100119.33;;;9.96;100.00
57024;BME280;42916;54.346;18.562;2023-03-20T06:28:04;100120.89;;;10.02;100.00
57024;BME280;42916;54.346;18.562;2023-03-20T06:30:31;100119.33;;;10.09;100.00
57024;BME280;42916;54.346;18.562;2023-03-20T06:32:58;100117.80;;;10.14;100.00
57024;BME280;42916;54.346;18.562;2023-03-20T06:35:31;100119.44;;;10.17;100.00
57024;BME280;42916;54.346;18.562;2023-03-20T06:37:59;100119.61;;;10.24;100.00
57024;BME280;42916;54.346;18.562;2023-03-20T06:40:26;100119.75;;;10.31;100.00
57024;BME280;42916;54.346;18.562;2023-03-20T06:42:54;100120.52;;;10.39;100.00
57024;BME280;42916;54.346;18.562;2023-03-20T06:45:21;100121.98;;;10.47;100.00
57024;BME280;42916;54.346;18.562;2023-03-20T06:48:00;100119.95;;;10.52;100.00
57024;BME280;42916;54.346;18.562;2023-03-20T06:50:28;100119.79;;;10.60;100.00
57024;BME280;42916;54.346;18.562;2023-03-20T06:52:57;100118.21;;;10.67;100.00
57024;BME280;42916;54.346;18.562;2023-03-20T06:55:50;100124.73;;;10.77;100.00
57024;BME280;42916;54.346;18.562;2023-03-20T06:58:17;100121.58;;;10.85;100.00
57024;BME280;42916;54.346;18.562;2023-03-20T07:00:45;100123.12;;;10.91;99.92
57024;BME280;42916;54.346;18.562;2023-03-20T07:03:13;100126.41;;;10.94;99.73
57024;BME280;42916;54.346;18.562;2023-03-20T07:05:39;100132.20;;;10.99;99.52
57024;BME280;42916;54.346;18.562;2023-03-20T07:08:08;100132.11;;;11.04;99.34
57024;BME280;42916;54.346;18.562;2023-03-20T07:10:35;100131.33;;;11.10;99.29
57024;BME280;42916;54.346;18.562;2023-03-20T07:13:03;100132.60;;;11.17;99.12
57024;BME280;42916;54.346;18.562;2023-03-20T07:15:30;100133.92;;;11.20;98.59
57024;BME280;42916;54.346;18.562;2023-03-20T07:17:58;100134.64;;;11.21;98.47
57024;BME280;42916;54.346;18.562;2023-03-20T07:20:26;100133.67;;;11.21;98.08
57024;BME280;42916;54.346;18.562;2023-03-20T07:22:53;100136.49;;;11.21;98.10
57024;BME280;42916;54.346;18.562;2023-03-20T07:25:26;100141.18;;;11.22;97.85
57024;BME280;42916;54.346;18.562;2023-03-20T07:27:54;100136.83;;;11.23;97.60
57024;BME280;42916;54.346;18.562;2023-03-20T07:30:22;100137.09;;;11.23;97.40
57024;BME280;42916;54.346;18.562;2023-03-20T07:32:49;100137.60;;;11.24;97.49
57024;BME280;42916;54.346;18.562;2023-03-20T07:35:16;100136.95;;;11.24;97.38
57024;BME280;42916;54.346;18.562;2023-03-20T07:37:43;100142.34;;;11.26;97.30
57024;BME280;42916;54.346;18.562;2023-03-20T07:40:10;100136.25;;;11.24;96.90
57024;BME280;42916;54.346;18.562;2023-03-20T07:42:45;100132.92;;;11.29;97.12
57024;BME280;42916;54.346;18.562;2023-03-20T07:45:21;100137.04;;;11.34;96.59
57024;BME280;42916;54.346;18.562;2023-03-20T07:47:48;100135.09;;;11.39;96.68
57024;BME280;42916;54.346;18.562;2023-03-20T07:50:15;100137.08;;;11.43;95.92
57024;BME280;42916;54.346;18.562;2023-03-20T07:52:48;100135.15;;;11.40;95.56
57024;BME280;42916;54.346;18.562;2023-03-20T07:55:16;100130.36;;;11.38;95.46
57024;BME280;42916;54.346;18.562;2023-03-20T07:57:43;100135.65;;;11.40;95.55
57024;BME280;42916;54.346;18.562;2023-03-20T08:00:12;100135.21;;;11.42;95.31
57024;BME280;42916;54.346;18.562;2023-03-20T08:02:39;100133.73;;;11.40;94.91
57024;BME280;42916;54.346;18.562;2023-03-20T08:05:06;100134.62;;;11.41;95.30
57024;BME280;42916;54.346;18.562;2023-03-20T08:07:33;100139.67;;;11.42;94.96
57024;BME280;42916;54.346;18.562;2023-03-20T08:10:01;100138.35;;;11.35;94.70
57024;BME280;42916;54.346;18.562;2023-03-20T08:12:28;100131.19;;;11.28;94.72
57024;BME280;42916;54.346;18.562;2023-03-20T08:14:54;100132.32;;;11.25;94.90
57024;BME280;42916;54.346;18.562;2023-03-20T08:17:21;100129.05;;;11.22;95.18
57024;BME280;42916;54.346;18.562;2023-03-20T08:19:48;100126.46;;;11.17;95.27
57024;BME280;42916;54.346;18.562;2023-03-20T08:22:15;100126.70;;;11.12;95.80
57024;BME280;42916;54.346;18.562;2023-03-20T08:24:42;100128.78;;;11.11;95.91
57024;BME280;42916;54.346;18.562;2023-03-20T08:27:09;100131.88;;;11.10;96.35
57024;BME280;42916;54.346;18.562;2023-03-20T08:29:35;100131.50;;;11.10;96.53
57024;BME280;42916;54.346;18.562;2023-03-20T08:32:02;100130.33;;;11.07;96.57
57024;BME280;42916;54.346;18.562;2023-03-20T08:34:30;100128.02;;;11.03;96.68
57024;BME280;42916;54.346;18.562;2023-03-20T08:36:57;100126.71;;;11.00;96.74
57024;BME280;42916;54.346;18.562;2023-03-20T08:39:24;100123.92;;;11.00;97.27
57024;BME280;42916;54.346;18.562;2023-03-20T08:41:51;100124.20;;;11.01;97.43
57024;BME280;42916;54.346;18.562;2023-03-20T08:44:18;100125.32;;;11.04;97.92
57024;BME280;42916;54.346;18.562;2023-03-20T08:46:44;100117.83;;;11.09;98.13
57024;BME280;42916;54.346;18.562;2023-03-20T08:49:15;100118.17;;;11.16;98.16
57024;BME280;42916;54.346;18.562;2023-03-20T08:51:53;100115.10;;;11.22;98.05
57024;BME280;42916;54.346;18.562;2023-03-20T08:54:20;100115.10;;;11.23;97.75
57024;BME280;42916;54.346;18.562;2023-03-20T08:56:46;100115.31;;;11.22;97.85
57024;BME280;42916;54.346;18.562;2023-03-20T08:59:13;100110.31;;;11.25;97.94
57024;BME280;42916;54.346;18.562;2023-03-20T09:01:40;100117.59;;;11.34;98.23
57024;BME280;42916;54.346;18.562;2023-03-20T09:04:07;100116.26;;;11.42;98.44
57024;BME280;42916;54.346;18.562;2023-03-20T09:06:37;100111.16;;;11.51;98.07
57024;BME280;42916;54.346;18.562;2023-03-20T09:09:04;100117.18;;;11.63;97.94
57024;BME280;42916;54.346;18.562;2023-03-20T09:11:32;100119.33;;;11.74;97.93
57024;BME280;42916;54.346;18.562;2023-03-20T09:13:59;100114.02;;;11.87;97.78
57024;BME280;42916;54.346;18.562;2023-03-20T09:16:26;100112.85;;;12.00;97.51
57024;BME280;42916;54.346;18.562;2023-03-20T09:18:53;100113.28;;;12.12;97.06
57024;BME280;42916;54.346;18.562;2023-03-20T09:21:20;100118.64;;;12.25;96.43
57024;BME280;42916;54.346;18.562;2023-03-20T09:23:47;100123.11;;;12.41;96.24
57024;BME280;42916;54.346;18.562;2023-03-20T09:26:14;100117.71;;;12.60;95.76
57024;BME280;42916;54.346;18.562;2023-03-20T09:28:41;100117.02;;;12.79;94.23
57024;BME280;42916;54.346;18.562;2023-03-20T09:31:07;100120.91;;;12.99;93.10
57024;BME280;42916;54.346;18.562;2023-03-20T09:33:34;100121.23;;;13.15;92.54
57024;BME280;42916;54.346;18.562;2023-03-20T09:36:01;100124.64;;;13.24;89.41
57024;BME280;42916;54.346;18.562;2023-03-20T09:38:28;100124.64;;;13.24;89.13
57024;BME280;42916;54.346;18.562;2023-03-20T09:40:58;100130.73;;;13.27;89.06
57024;BME280;42916;54.346;18.562;2023-03-20T09:46:52;100140.37;;;13.32;87.55
57024;BME280;42916;54.346;18.562;2023-03-20T09:52:20;100155.43;;;13.30;86.26
57024;BME280;42916;54.346;18.562;2023-03-20T09:54:53;100154.21;;;13.16;84.74
57024;BME280;42916;54.346;18.562;2023-03-20T09:57:27;100169.27;;;13.04;84.17
57024;BME280;42916;54.346;18.562;2023-03-20T10:00:00;100175.73;;;12.96;84.23
57024;BME280;42916;54.346;18.562;2023-03-20T10:03:02;100179.32;;;12.85;83.85
57024;BME280;42916;54.346;18.562;2023-03-20T10:05:45;100177.27;;;12.67;83.85
57024;BME280;42916;54.346;18.562;2023-03-20T10:08:14;100168.20;;;12.60;83.99
57024;BME280;42916;54.346;18.562;2023-03-20T10:11:00;100167.60;;;12.66;84.31
57024;BME280;42916;54.346;18.562;2023-03-20T10:19:23;100168.53;;;12.67;84.45
57024;BME280;42916;54.346;18.562;2023-03-20T10:24:41;100160.98;;;12.71;83.81
57024;BME280;42916;54.346;18.562;2023-03-20T10:27:31;100159.27;;;12.85;84.08
57024;BME280;42916;54.346;18.562;2023-03-20T10:32:48;100158.57;;;12.84;82.48
57024;BME280;42916;54.346;18.562;2023-03-20T10:35:48;100160.53;;;12.83;82.26
57024;BME280;42916;54.346;18.562;2023-03-20T10:41:11;100175.76;;;12.62;81.56
57024;BME280;42916;54.346;18.562;2023-03-20T10:43:41;100174.39;;;12.50;82.39
57024;BME280;42916;54.346;18.562;2023-03-20T10:46:13;100180.34;;;12.45;82.82
57024;BME280;42916;54.346;18.562;2023-03-20T10:48:44;100176.84;;;12.34;83.03
57024;BME280;42916;54.346;18.562;2023-03-20T10:51:16;100178.96;;;12.23;83.26
57024;BME280;42916;54.346;18.562;2023-03-20T10:53:54;100184.98;;;12.07;83.42
57024;BME280;42916;54.346;18.562;2023-03-20T10:58:58;100178.27;;;11.93;84.34
57024;BME280;42916;54.346;18.562;2023-03-20T11:01:25;100179.36;;;11.93;84.26
57024;BME280;42916;54.346;18.562;2023-03-20T11:03:52;100178.66;;;11.98;84.24
57024;BME280;42916;54.346;18.562;2023-03-20T11:06:22;100178.06;;;11.99;83.39
57024;BME280;42916;54.346;18.562;2023-03-20T11:08:52;100174.73;;;11.99;83.47
57024;BME280;42916;54.346;18.562;2023-03-20T11:11:27;100178.98;;;11.97;83.32
57024;BME280;42916;54.346;18.562;2023-03-20T11:13:54;100179.95;;;11.93;83.17
57024;BME280;42916;54.346;18.562;2023-03-20T11:16:28;100179.18;;;11.92;83.23
57024;BME280;42916;54.346;18.562;2023-03-20T11:19:04;100173.75;;;11.97;83.34
57024;BME280;42916;54.346;18.562;2023-03-20T11:21:31;100185.05;;;12.04;82.20
57024;BME280;42916;54.346;18.562;2023-03-20T11:24:01;100183.14;;;12.00;81.01
57024;BME280;42916;54.346;18.562;2023-03-20T11:26:40;100181.77;;;11.97;80.96
57024;BME280;42916;54.346;18.562;2023-03-20T11:29:21;100190.41;;;11.91;81.42
57024;BME280;42916;54.346;18.562;2023-03-20T11:31:50;100181.33;;;11.84;81.40
57024;BME280;42916;54.346;18.562;2023-03-20T11:36:56;100174.15;;;11.72;81.98
57024;BME280;42916;54.346;18.562;2023-03-20T11:39:26;100180.49;;;11.77;82.32
57024;BME280;42916;54.346;18.562;2023-03-20T11:41:56;100180.52;;;11.71;81.52
57024;BME280;42916;54.346;18.562;2023-03-20T11:44:31;100174.69;;;11.69;81.96
57024;BME280;42916;54.346;18.562;2023-03-20T11:47:05;100171.63;;;11.67;82.34
57024;BME280;42916;54.346;18.562;2023-03-20T11:49:44;100174.45;;;11.76;82.62
57024;BME280;42916;54.346;18.562;2023-03-20T11:52:15;100169.78;;;11.86;82.82
57024;BME280;42916;54.346;18.562;2023-03-20T11:54:51;100179.35;;;11.97;81.64
57024;BME280;42916;54.346;18.562;2023-03-20T11:59:55;100182.65;;;11.70;80.48
57024;BME280;42916;54.346;18.562;2023-03-20T12:02:23;100181.16;;;11.49;80.45
57024;BME280;42916;54.346;18.562;2023-03-20T12:04:50;100188.58;;;11.26;81.04
57024;BME280;42916;54.346;18.562;2023-03-20T12:07:30;100186.73;;;11.07;82.01
57024;BME280;42916;54.346;18.562;2023-03-20T12:10:03;100187.73;;;11.00;82.43
57024;BME280;42916;54.346;18.562;2023-03-20T12:13:00;100178.84;;;10.98;82.81
57024;BME280;42916;54.346;18.562;2023-03-20T12:15:36;100183.12;;;10.93;83.04
57024;BME280;42916;54.346;18.562;2023-03-20T12:18:10;100176.17;;;10.95;83.82
57024;BME280;42916;54.346;18.562;2023-03-20T12:21:25;100170.05;;;11.02;83.85
57024;BME280;42916;54.346;18.562;2023-03-20T12:23:33;100172.58;;;11.15;84.08
57024;BME280;42916;54.346;18.562;2023-03-20T12:26:05;100172.80;;;11.29;84.14
57024;BME280;42916;54.346;18.562;2023-03-20T12:29:26;100180.23;;;11.31;82.45
57024;BME280;42916;54.346;18.562;2023-03-20T12:32:01;100162.23;;;11.28;82.93
57024;BME280;42916;54.346;18.562;2023-03-20T12:34:42;100159.81;;;11.33;82.26
57024;BME280;42916;54.346;18.562;2023-03-20T12:37:13;100163.23;;;11.30;81.83
57024;BME280;42916;54.346;18.562;2023-03-20T12:39:52;100150.40;;;11.42;82.72
57024;BME280;42916;54.346;18.562;2023-03-20T12:58:40;100143.40;;;11.88;77.97
57024;BME280;42916;54.346;18.562;2023-03-20T13:01:47;100144.26;;;11.85;77.79
57024;BME280;42916;54.346;18.562;2023-03-20T13:04:46;100138.75;;;11.80;77.81
57024;BME280;42916;54.346;18.562;2023-03-20T13:08:08;100138.87;;;11.86;77.66
57024;BME280;42916;54.346;18.562;2023-03-20T13:10:15;100139.91;;;11.89;77.42
57024;BME280;42916;54.346;18.562;2023-03-20T13:13:28;100139.51;;;12.00;77.90
57024;BME280;42916;54.346;18.562;2023-03-20T13:16:02;100139.91;;;12.02;77.33
57024;BME280;42916;54.346;18.562;2023-03-20T13:18:59;100150.59;;;11.86;76.86
57024;BME280;42916;54.346;18.562;2023-03-20T13:22:03;100148.63;;;11.50;76.88
57024;BME280;42916;54.346;18.562;2023-03-20T13:27:41;100153.70;;;10.90;78.81
57024;BME280;42916;54.346;18.562;2023-03-20T13:30:33;100157.98;;;10.67;79.03
57024;BME280;42916;54.346;18.562;2023-03-20T13:38:48;100172.20;;;9.59;81.84
57024;BME280;42916;54.346;18.562;2023-03-20T13:41:18;100178.45;;;9.36;82.93
57024;BME280;42916;54.346;18.562;2023-03-20T13:43:50;100172.88;;;9.17;84.07
57024;BME280;42916;54.346;18.562;2023-03-20T13:52:22;100174.04;;;8.79;86.90
57024;BME280;42916;54.346;18.562;2023-03-20T14:00:27;100160.40;;;8.74;87.07
57024;BME280;42916;54.346;18.562;2023-03-20T14:05:43;100154.67;;;8.65;87.49
57024;BME280;42916;54.346;18.562;2023-03-20T14:13:32;100157.42;;;8.52;88.15
57024;BME280;42916;54.346;18.562;2023-03-20T14:16:03;100157.75;;;8.46;88.53
57024;BME280;42916;54.346;18.562;2023-03-20T14:18:30;100169.75;;;8.41;88.77
57024;BME280;42916;54.346;18.562;2023-03-20T14:20:59;100168.58;;;8.33;89.77
57024;BME280;42916;54.346;18.562;2023-03-20T14:23:35;100161.02;;;8.25;90.28
57024;BME280;42916;54.346;18.562;2023-03-20T14:26:21;100165.20;;;8.22;90.43
57024;BME280;42916;54.346;18.562;2023-03-20T14:31:39;100167.18;;;8.11;92.37
57024;BME280;42916;54.346;18.562;2023-03-20T14:36:50;100174.20;;;8.07;92.36
57024;BME280;42916;54.346;18.562;2023-03-20T14:45:15;100168.66;;;8.03;93.41
57024;BME280;42916;54.346;18.562;2023-03-20T14:48:03;100171.44;;;8.04;93.31
57024;BME280;42916;54.346;18.562;2023-03-20T14:58:32;100161.77;;;8.11;93.80
57024;BME280;42916;54.346;18.562;2023-03-20T15:01:02;100155.30;;;8.14;94.11
57024;BME280;42916;54.346;18.562;2023-03-20T15:03:30;100151.61;;;8.21;93.67
57024;BME280;42916;54.346;18.562;2023-03-20T15:06:01;100146.73;;;8.31;93.24
57024;BME280;42916;54.346;18.562;2023-03-20T15:08:33;100144.62;;;8.43;93.36
57024;BME280;42916;54.346;18.562;2023-03-20T15:11:09;100144.38;;;8.50;92.69
57024;BME280;42916;54.346;18.562;2023-03-20T15:13:39;100143.41;;;8.55;92.42
57024;BME280;42916;54.346;18.562;2023-03-20T15:16:12;100142.63;;;8.60;92.22
57024;BME280;42916;54.346;18.562;2023-03-20T15:21:15;100137.59;;;8.53;91.61
57024;BME280;42916;54.346;18.562;2023-03-20T15:23:46;100134.41;;;8.51;91.70
57024;BME280;42916;54.346;18.562;2023-03-20T15:26:15;100138.48;;;8.51;91.62
57024;BME280;42916;54.346;18.562;2023-03-20T15:28:45;100132.95;;;8.51;91.69
57024;BME280;42916;54.346;18.562;2023-03-20T15:31:23;100134.27;;;8.49;91.99